Terminal Aerodrome Forecast
Issued by NWS

Home | Current Version | Previous Version | Text Only | Print | Product List | Glossary On
Versions: 1 2 3 4 5 6 7 8 9 10 11 12 13 14 15 16 17 18 19 20 21 22 23 24 25 26
497
FTAK31 PAFA 270540
TAFAUN
TAF
PAUN 270540Z 2706/2806 13005KT P6SM SCT050 SCT090
     FM271300 15007KT P6SM VCSH OVC050
     FM272200 28008KT P6SM VCSH BKN050=

USA.gov is the U.S. government's official web portal to all federal, state and local government web resources and services.